sensor_id;sensor_type;location;lat;lon;timestamp;temperature;humidity
69335;SHT31;56477;52.742;15.242;2023-04-25T00:02:04;8.37;78.61
69335;SHT31;56477;52.742;15.242;2023-04-25T00:04:30;8.43;78.55
69335;SHT31;56477;52.742;15.242;2023-04-25T00:06:59;8.46;78.73
69335;SHT31;56477;52.742;15.242;2023-04-25T00:09:27;8.46;78.91
69335;SHT31;56477;52.742;15.242;2023-04-25T00:11:53;8.49;78.80
69335;SHT31;56477;52.742;15.242;2023-04-25T00:14:19;8.53;78.84
69335;SHT31;56477;52.742;15.242;2023-04-25T00:16:45;8.54;79.22
69335;SHT31;56477;52.742;15.242;2023-04-25T00:19:11;8.56;78.95
69335;SHT31;56477;52.742;15.242;2023-04-25T00:21:36;8.60;79.04
69335;SHT31;56477;52.742;15.242;2023-04-25T00:24:07;8.57;79.20
69335;SHT31;56477;52.742;15.242;2023-04-25T00:26:34;8.61;79.14
69335;SHT31;56477;52.742;15.242;2023-04-25T00:29:01;8.61;79.07
69335;SHT31;56477;52.742;15.242;2023-04-25T00:31:27;8.63;79.18
69335;SHT31;56477;52.742;15.242;2023-04-25T00:33:54;8.60;79.17
69335;SHT31;56477;52.742;15.242;2023-04-25T00:36:20;8.61;79.17
69335;SHT31;56477;52.742;15.242;2023-04-25T00:38:47;8.65;79.04
69335;SHT31;56477;52.742;15.242;2023-04-25T00:41:13;8.65;79.26
69335;SHT31;56477;52.742;15.242;2023-04-25T00:43:40;8.68;79.18
69335;SHT31;56477;52.742;15.242;2023-04-25T00:46:06;8.68;79.12
69335;SHT31;56477;52.742;15.242;2023-04-25T00:48:32;8.60;79.05
69335;SHT31;56477;52.742;15.242;2023-04-25T00:50:59;8.61;79.37
69335;SHT31;56477;52.742;15.242;2023-04-25T00:53:27;8.64;79.34
69335;SHT31;56477;52.742;15.242;2023-04-25T00:55:54;8.63;79.33
69335;SHT31;56477;52.742;15.242;2023-04-25T00:58:21;8.63;79.51
69335;SHT31;56477;52.742;15.242;2023-04-25T01:00:49;8.61;79.91
69335;SHT31;56477;52.742;15.242;2023-04-25T01:03:16;8.59;79.92
69335;SHT31;56477;52.742;15.242;2023-04-25T01:05:45;8.56;80.57
69335;SHT31;56477;52.742;15.242;2023-04-25T01:08:13;8.44;81.34
69335;SHT31;56477;52.742;15.242;2023-04-25T01:10:39;8.37;81.84
69335;SHT31;56477;52.742;15.242;2023-04-25T01:13:05;8.34;81.97
69335;SHT31;56477;52.742;15.242;2023-04-25T01:15:31;8.30;82.43
69335;SHT31;56477;52.742;15.242;2023-04-25T01:17:57;8.21;82.88
69335;SHT31;56477;52.742;15.242;2023-04-25T01:20:24;8.19;83.20
69335;SHT31;56477;52.742;15.242;2023-04-25T01:22:52;8.14;83.38
69335;SHT31;56477;52.742;15.242;2023-04-25T01:25:18;8.14;83.65
69335;SHT31;56477;52.742;15.242;2023-04-25T01:27:45;8.07;84.19
69335;SHT31;56477;52.742;15.242;2023-04-25T01:30:11;7.98;84.51
69335;SHT31;56477;52.742;15.242;2023-04-25T01:32:37;7.95;84.98
69335;SHT31;56477;52.742;15.242;2023-04-25T01:35:05;7.91;85.24
69335;SHT31;56477;52.742;15.242;2023-04-25T01:37:39;7.89;85.26
69335;SHT31;56477;52.742;15.242;2023-04-25T01:40:06;7.88;85.43
69335;SHT31;56477;52.742;15.242;2023-04-25T01:42:34;7.89;85.62
69335;SHT31;56477;52.742;15.242;2023-04-25T01:45:01;7.82;85.76
69335;SHT31;56477;52.742;15.242;2023-04-25T01:47:28;7.82;85.89
69335;SHT31;56477;52.742;15.242;2023-04-25T01:49:54;7.74;86.25
69335;SHT31;56477;52.742;15.242;2023-04-25T01:52:20;7.72;86.28
69335;SHT31;56477;52.742;15.242;2023-04-25T01:54:47;7.68;86.61
69335;SHT31;56477;52.742;15.242;2023-04-25T01:57:14;7.61;86.94
69335;SHT31;56477;52.742;15.242;2023-04-25T01:59:40;7.57;87.21
69335;SHT31;56477;52.742;15.242;2023-04-25T02:02:06;7.58;87.13
69335;SHT31;56477;52.742;15.242;2023-04-25T02:04:32;7.58;87.23
69335;SHT31;56477;52.742;15.242;2023-04-25T02:06:59;7.51;87.41
69335;SHT31;56477;52.742;15.242;2023-04-25T02:09:24;7.48;87.70
69335;SHT31;56477;52.742;15.242;2023-04-25T02:11:51;7.48;87.91
69335;SHT31;56477;52.742;15.242;2023-04-25T02:14:16;7.44;87.99
69335;SHT31;56477;52.742;15.242;2023-04-25T02:16:42;7.43;88.08
69335;SHT31;56477;52.742;15.242;2023-04-25T02:19:09;7.33;88.33
69335;SHT31;56477;52.742;15.242;2023-04-25T02:21:36;7.30;88.52
69335;SHT31;56477;52.742;15.242;2023-04-25T02:24:02;7.28;88.58
69335;SHT31;56477;52.742;15.242;2023-04-25T02:26:29;7.26;88.78
69335;SHT31;56477;52.742;15.242;2023-04-25T02:28:56;7.23;88.80
69335;SHT31;56477;52.742;15.242;2023-04-25T02:31:23;7.19;88.90
69335;SHT31;56477;52.742;15.242;2023-04-25T02:33:48;7.20;88.91
69335;SHT31;56477;52.742;15.242;2023-04-25T02:36:15;7.16;89.07
69335;SHT31;56477;52.742;15.242;2023-04-25T02:38:40;7.10;89.30
69335;SHT31;56477;52.742;15.242;2023-04-25T02:41:07;7.06;89.46
69335;SHT31;56477;52.742;15.242;2023-04-25T02:43:32;7.02;89.47
69335;SHT31;56477;52.742;15.242;2023-04-25T02:45:59;6.96;89.67
69335;SHT31;56477;52.742;15.242;2023-04-25T02:48:24;6.96;89.62
69335;SHT31;56477;52.742;15.242;2023-04-25T02:50:50;6.96;89.38
69335;SHT31;56477;52.742;15.242;2023-04-25T02:53:16;6.97;89.40
69335;SHT31;56477;52.742;15.242;2023-04-25T02:55:42;6.96;89.34
69335;SHT31;56477;52.742;15.242;2023-04-25T02:58:08;7.00;89.30
69335;SHT31;56477;52.742;15.242;2023-04-25T03:00:34;6.97;89.26
69335;SHT31;56477;52.742;15.242;2023-04-25T03:03:00;6.96;89.26
69335;SHT31;56477;52.742;15.242;2023-04-25T03:05:26;6.99;89.17
69335;SHT31;56477;52.742;15.242;2023-04-25T03:07:52;6.96;89.37
69335;SHT31;56477;52.742;15.242;2023-04-25T03:10:18;6.96;89.44
69335;SHT31;56477;52.742;15.242;2023-04-25T03:12:44;6.95;89.73
69335;SHT31;56477;52.742;15.242;2023-04-25T03:15:10;6.89;89.71
69335;SHT31;56477;52.742;15.242;2023-04-25T03:17:36;6.89;89.91
69335;SHT31;56477;52.742;15.242;2023-04-25T03:20:02;6.89;89.80
69335;SHT31;56477;52.742;15.242;2023-04-25T03:22:29;6.85;89.78
69335;SHT31;56477;52.742;15.242;2023-04-25T03:24:55;6.84;89.74
69335;SHT31;56477;52.742;15.242;2023-04-25T03:27:21;6.84;89.61
69335;SHT31;56477;52.742;15.242;2023-04-25T03:29:47;6.84;89.51
69335;SHT31;56477;52.742;15.242;2023-04-25T03:32:13;6.78;89.63
69335;SHT31;56477;52.742;15.242;2023-04-25T03:34:39;6.78;89.58
69335;SHT31;56477;52.742;15.242;2023-04-25T03:37:05;6.79;89.56
69335;SHT31;56477;52.742;15.242;2023-04-25T03:39:31;6.76;89.46
69335;SHT31;56477;52.742;15.242;2023-04-25T03:41:57;6.74;89.45
69335;SHT31;56477;52.742;15.242;2023-04-25T03:44:23;6.75;89.28
69335;SHT31;56477;52.742;15.242;2023-04-25T03:46:50;6.76;89.37
69335;SHT31;56477;52.742;15.242;2023-04-25T03:49:16;6.76;89.34
69335;SHT31;56477;52.742;15.242;2023-04-25T03:51:42;6.81;89.07
69335;SHT31;56477;52.742;15.242;2023-04-25T03:54:08;6.85;89.30
69335;SHT31;56477;52.742;15.242;2023-04-25T03:56:34;6.81;89.26
69335;SHT31;56477;52.742;15.242;2023-04-25T03:59:00;6.85;88.99
69335;SHT31;56477;52.742;15.242;2023-04-25T04:01:26;6.86;88.88
69335;SHT31;56477;52.742;15.242;2023-04-25T04:03:52;6.89;88.51
69335;SHT31;56477;52.742;15.242;2023-04-25T04:06:18;6.91;88.47
69335;SHT31;56477;52.742;15.242;2023-04-25T04:08:46;6.92;88.42
69335;SHT31;56477;52.742;15.242;2023-04-25T04:11:12;6.96;88.22
69335;SHT31;56477;52.742;15.242;2023-04-25T04:13:38;6.99;87.67
69335;SHT31;56477;52.742;15.242;2023-04-25T04:16:04;7.05;87.54
69335;SHT31;56477;52.742;15.242;2023-04-25T04:18:31;7.06;87.96
69335;SHT31;56477;52.742;15.242;2023-04-25T04:20:59;7.10;88.03
69335;SHT31;56477;52.742;15.242;2023-04-25T04:23:25;7.06;88.43
69335;SHT31;56477;52.742;15.242;2023-04-25T04:25:53;6.99;88.84
69335;SHT31;56477;52.742;15.242;2023-04-25T04:28:19;7.00;89.01
69335;SHT31;56477;52.742;15.242;2023-04-25T04:30:46;7.05;88.88
69335;SHT31;56477;52.742;15.242;2023-04-25T04:33:12;7.05;88.86
69335;SHT31;56477;52.742;15.242;2023-04-25T04:35:38;6.96;89.17
69335;SHT31;56477;52.742;15.242;2023-04-25T04:38:04;6.96;88.98
69335;SHT31;56477;52.742;15.242;2023-04-25T04:40:30;6.96;88.86
69335;SHT31;56477;52.742;15.242;2023-04-25T04:42:57;6.99;88.76
69335;SHT31;56477;52.742;15.242;2023-04-25T04:45:23;6.95;88.68
69335;SHT31;56477;52.742;15.242;2023-04-25T04:47:49;7.00;88.60
69335;SHT31;56477;52.742;15.242;2023-04-25T04:50:15;7.09;88.22
69335;SHT31;56477;52.742;15.242;2023-04-25T04:52:42;7.12;87.64
69335;SHT31;56477;52.742;15.242;2023-04-25T04:55:08;7.19;87.39
69335;SHT31;56477;52.742;15.242;2023-04-25T04:57:34;7.22;87.14
69335;SHT31;56477;52.742;15.242;2023-04-25T05:00:01;7.26;87.24
69335;SHT31;56477;52.742;15.242;2023-04-25T05:02:30;7.30;86.68
69335;SHT31;56477;52.742;15.242;2023-04-25T05:04:56;7.36;86.52
69335;SHT31;56477;52.742;15.242;2023-04-25T05:07:22;7.44;86.27
69335;SHT31;56477;52.742;15.242;2023-04-25T05:09:48;7.53;85.95
69335;SHT31;56477;52.742;15.242;2023-04-25T05:12:14;7.53;86.05
69335;SHT31;56477;52.742;15.242;2023-04-25T05:14:40;7.54;85.92
69335;SHT31;56477;52.742;15.242;2023-04-25T05:17:06;7.57;86.04
69335;SHT31;56477;52.742;15.242;2023-04-25T05:19:34;7.60;85.74
69335;SHT31;56477;52.742;15.242;2023-04-25T05:22:00;7.58;85.67
69335;SHT31;56477;52.742;15.242;2023-04-25T05:24:26;7.64;85.58
69335;SHT31;56477;52.742;15.242;2023-04-25T05:26:52;7.65;85.13
69335;SHT31;56477;52.742;15.242;2023-04-25T05:29:18;7.68;84.90
69335;SHT31;56477;52.742;15.242;2023-04-25T05:31:46;7.77;84.91
69335;SHT31;56477;52.742;15.242;2023-04-25T05:34:13;7.81;84.49
69335;SHT31;56477;52.742;15.242;2023-04-25T05:36:39;7.79;84.72
69335;SHT31;56477;52.742;15.242;2023-04-25T05:39:05;7.82;84.27
69335;SHT31;56477;52.742;15.242;2023-04-25T05:41:32;7.82;84.04
69335;SHT31;56477;52.742;15.242;2023-04-25T05:43:58;7.78;83.73
69335;SHT31;56477;52.742;15.242;2023-04-25T05:46:24;7.92;83.47
69335;SHT31;56477;52.742;15.242;2023-04-25T05:48:50;8.01;83.71
69335;SHT31;56477;52.742;15.242;2023-04-25T05:51:16;7.95;83.13
69335;SHT31;56477;52.742;15.242;2023-04-25T05:53:44;7.99;83.38
69335;SHT31;56477;52.742;15.242;2023-04-25T05:56:10;7.99;83.03
69335;SHT31;56477;52.742;15.242;2023-04-25T05:58:36;8.07;83.06
69335;SHT31;56477;52.742;15.242;2023-04-25T06:01:02;8.09;82.79
69335;SHT31;56477;52.742;15.242;2023-04-25T06:03:28;8.16;82.81
69335;SHT31;56477;52.742;15.242;2023-04-25T06:05:54;8.16;83.01
69335;SHT31;56477;52.742;15.242;2023-04-25T06:08:20;8.23;82.75
69335;SHT31;56477;52.742;15.242;2023-04-25T06:10:46;8.23;82.23
69335;SHT31;56477;52.742;15.242;2023-04-25T06:13:12;8.22;82.58
69335;SHT31;56477;52.742;15.242;2023-04-25T06:15:40;8.25;82.49
69335;SHT31;56477;52.742;15.242;2023-04-25T06:18:06;8.34;82.19
69335;SHT31;56477;52.742;15.242;2023-04-25T06:20:32;8.23;82.54
69335;SHT31;56477;52.742;15.242;2023-04-25T06:22:58;8.32;82.20
69335;SHT31;56477;52.742;15.242;2023-04-25T06:25:24;8.42;82.07
69335;SHT31;56477;52.742;15.242;2023-04-25T06:27:50;8.39;81.64
69335;SHT31;56477;52.742;15.242;2023-04-25T06:30:16;8.43;81.42
69335;SHT31;56477;52.742;15.242;2023-04-25T06:32:47;8.37;81.72
69335;SHT31;56477;52.742;15.242;2023-04-25T06:35:13;8.50;81.53
69335;SHT31;56477;52.742;15.242;2023-04-25T06:37:39;8.57;81.14
69335;SHT31;56477;52.742;15.242;2023-04-25T06:40:06;8.60;80.82
69335;SHT31;56477;52.742;15.242;2023-04-25T06:42:32;8.47;81.19
69335;SHT31;56477;52.742;15.242;2023-04-25T06:44:58;8.54;81.15
69335;SHT31;56477;52.742;15.242;2023-04-25T06:47:24;8.49;81.14
69335;SHT31;56477;52.742;15.242;2023-04-25T06:49:50;8.51;81.37
69335;SHT31;56477;52.742;15.242;2023-04-25T06:52:16;8.59;80.86
69335;SHT31;56477;52.742;15.242;2023-04-25T06:54:44;8.77;80.57
69335;SHT31;56477;52.742;15.242;2023-04-25T06:57:10;8.70;80.38
69335;SHT31;56477;52.742;15.242;2023-04-25T06:59:36;8.78;79.91
69335;SHT31;56477;52.742;15.242;2023-04-25T07:02:02;8.77;79.87
69335;SHT31;56477;52.742;15.242;2023-04-25T07:04:29;8.72;79.80
69335;SHT31;56477;52.742;15.242;2023-04-25T07:06:56;8.61;80.13
69335;SHT31;56477;52.742;15.242;2023-04-25T07:09:22;8.72;80.28
69335;SHT31;56477;52.742;15.242;2023-04-25T07:11:48;8.77;79.96
69335;SHT31;56477;52.742;15.242;2023-04-25T07:14:14;8.87;79.94
69335;SHT31;56477;52.742;15.242;2023-04-25T07:16:40;9.04;79.42
69335;SHT31;56477;52.742;15.242;2023-04-25T07:19:07;8.85;78.93
69335;SHT31;56477;52.742;15.242;2023-04-25T07:21:33;9.00;78.56
69335;SHT31;56477;52.742;15.242;2023-04-25T07:23:59;9.04;79.21
69335;SHT31;56477;52.742;15.242;2023-04-25T07:26:25;8.98;79.09
69335;SHT31;56477;52.742;15.242;2023-04-25T07:28:51;9.15;78.88
69335;SHT31;56477;52.742;15.242;2023-04-25T07:31:17;9.00;79.07
69335;SHT31;56477;52.742;15.242;2023-04-25T07:33:46;9.00;78.87
69335;SHT31;56477;52.742;15.242;2023-04-25T07:36:12;9.07;79.04
69335;SHT31;56477;52.742;15.242;2023-04-25T07:38:39;9.54;78.15
69335;SHT31;56477;52.742;15.242;2023-04-25T07:41:04;9.47;77.50
69335;SHT31;56477;52.742;15.242;2023-04-25T07:43:31;9.66;77.12
69335;SHT31;56477;52.742;15.242;2023-04-25T07:45:57;10.32;75.83
69335;SHT31;56477;52.742;15.242;2023-04-25T07:48:23;10.25;74.80
69335;SHT31;56477;52.742;15.242;2023-04-25T07:50:49;10.46;74.37
69335;SHT31;56477;52.742;15.242;2023-04-25T07:53:14;10.21;74.69
69335;SHT31;56477;52.742;15.242;2023-04-25T07:55:41;10.72;74.10
69335;SHT31;56477;52.742;15.242;2023-04-25T07:58:07;10.79;73.14
69335;SHT31;56477;52.742;15.242;2023-04-25T08:00:34;11.01;73.58
69335;SHT31;56477;52.742;15.242;2023-04-25T08:03:00;11.11;72.22
69335;SHT31;56477;52.742;15.242;2023-04-25T08:05:26;11.20;70.79
69335;SHT31;56477;52.742;15.242;2023-04-25T08:07:52;11.25;71.69
69335;SHT31;56477;52.742;15.242;2023-04-25T08:10:18;11.17;72.12
69335;SHT31;56477;52.742;15.242;2023-04-25T08:12:43;11.03;72.05
69335;SHT31;56477;52.742;15.242;2023-04-25T08:15:10;10.73;72.30
69335;SHT31;56477;52.742;15.242;2023-04-25T08:17:36;10.15;73.47
69335;SHT31;56477;52.742;15.242;2023-04-25T08:20:02;10.14;74.54
69335;SHT31;56477;52.742;15.242;2023-04-25T08:22:31;9.93;74.83
69335;SHT31;56477;52.742;15.242;2023-04-25T08:24:57;9.84;75.90
69335;SHT31;56477;52.742;15.242;2023-04-25T08:27:23;9.69;76.44
69335;SHT31;56477;52.742;15.242;2023-04-25T08:29:49;9.73;76.40
69335;SHT31;56477;52.742;15.242;2023-04-25T08:32:16;9.71;76.29
69335;SHT31;56477;52.742;15.242;2023-04-25T08:34:42;9.76;76.53
69335;SHT31;56477;52.742;15.242;2023-04-25T08:37:09;9.60;76.77
69335;SHT31;56477;52.742;15.242;2023-04-25T08:39:36;9.64;76.51
69335;SHT31;56477;52.742;15.242;2023-04-25T08:42:05;9.51;77.36
69335;SHT31;56477;52.742;15.242;2023-04-25T08:44:34;9.38;77.74
69335;SHT31;56477;52.742;15.242;2023-04-25T08:47:04;9.36;78.69
69335;SHT31;56477;52.742;15.242;2023-04-25T08:49:34;9.46;78.71
69335;SHT31;56477;52.742;15.242;2023-04-25T08:52:04;9.39;79.22
69335;SHT31;56477;52.742;15.242;2023-04-25T08:54:32;9.02;81.47
69335;SHT31;56477;52.742;15.242;2023-04-25T08:57:02;8.78;83.70
69335;SHT31;56477;52.742;15.242;2023-04-25T08:59:30;8.70;84.74
69335;SHT31;56477;52.742;15.242;2023-04-25T09:01:57;8.57;85.57
69335;SHT31;56477;52.742;15.242;2023-04-25T09:04:23;8.61;85.58
69335;SHT31;56477;52.742;15.242;2023-04-25T09:06:49;8.81;85.95
69335;SHT31;56477;52.742;15.242;2023-04-25T09:09:15;8.67;86.61
69335;SHT31;56477;52.742;15.242;2023-04-25T09:11:41;8.57;85.19
69335;SHT31;56477;52.742;15.242;2023-04-25T09:14:20;8.63;85.85
69335;SHT31;56477;52.742;15.242;2023-04-25T09:19:41;8.85;85.66
69335;SHT31;56477;52.742;15.242;2023-04-25T09:22:09;8.85;86.77
69335;SHT31;56477;52.742;15.242;2023-04-25T09:24:40;8.75;85.72
69335;SHT31;56477;52.742;15.242;2023-04-25T09:27:12;8.84;86.76
69335;SHT31;56477;52.742;15.242;2023-04-25T09:29:40;8.78;86.32
69335;SHT31;56477;52.742;15.242;2023-04-25T09:32:20;8.77;86.20
69335;SHT31;56477;52.742;15.242;2023-04-25T09:37:20;8.82;85.55
69335;SHT31;56477;52.742;15.242;2023-04-25T09:40:06;8.71;86.29
69335;SHT31;56477;52.742;15.242;2023-04-25T09:42:35;8.80;86.59
69335;SHT31;56477;52.742;15.242;2023-04-25T09:45:03;8.92;86.29
69335;SHT31;56477;52.742;15.242;2023-04-25T09:47:29;9.05;86.08
69335;SHT31;56477;52.742;15.242;2023-04-25T09:49:55;8.95;85.01
69335;SHT31;56477;52.742;15.242;2023-04-25T09:52:22;9.15;84.91
69335;SHT31;56477;52.742;15.242;2023-04-25T09:54:49;9.26;84.51
69335;SHT31;56477;52.742;15.242;2023-04-25T09:57:17;9.11;84.91
69335;SHT31;56477;52.742;15.242;2023-04-25T09:59:46;9.22;83.68
69335;SHT31;56477;52.742;15.242;2023-04-25T10:02:13;9.11;82.31
69335;SHT31;56477;52.742;15.242;2023-04-25T10:04:41;9.15;82.99
69335;SHT31;56477;52.742;15.242;2023-04-25T10:07:08;9.29;81.83
69335;SHT31;56477;52.742;15.242;2023-04-25T10:09:37;9.19;81.64
69335;SHT31;56477;52.742;15.242;2023-04-25T10:12:08;9.09;81.97
69335;SHT31;56477;52.742;15.242;2023-04-25T10:14:35;9.04;81.89
69335;SHT31;56477;52.742;15.242;2023-04-25T10:17:01;9.02;82.90
69335;SHT31;56477;52.742;15.242;2023-04-25T10:19:28;8.81;83.20
69335;SHT31;56477;52.742;15.242;2023-04-25T10:22:39;8.65;84.83
69335;SHT31;56477;52.742;15.242;2023-04-25T10:25:08;8.60;84.86
69335;SHT31;56477;52.742;15.242;2023-04-25T10:27:35;8.67;85.19
69335;SHT31;56477;52.742;15.242;2023-04-25T10:30:02;8.98;84.38
69335;SHT31;56477;52.742;15.242;2023-04-25T10:32:32;9.49;84.10
69335;SHT31;56477;52.742;15.242;2023-04-25T10:35:23;9.93;80.97
69335;SHT31;56477;52.742;15.242;2023-04-25T10:38:10;10.08;80.72
69335;SHT31;56477;52.742;15.242;2023-04-25T10:40:38;10.48;79.31
69335;SHT31;56477;52.742;15.242;2023-04-25T10:43:42;10.46;78.56
69335;SHT31;56477;52.742;15.242;2023-04-25T10:46:26;10.00;77.90
69335;SHT31;56477;52.742;15.242;2023-04-25T10:48:54;9.67;78.93
69335;SHT31;56477;52.742;15.242;2023-04-25T10:51:31;9.61;79.80
69335;SHT31;56477;52.742;15.242;2023-04-25T10:54:02;9.60;80.35
69335;SHT31;56477;52.742;15.242;2023-04-25T10:56:48;9.53;81.24
69335;SHT31;56477;52.742;15.242;2023-04-25T10:59:18;9.40;83.75
69335;SHT31;56477;52.742;15.242;2023-04-25T11:01:49;9.21;84.74
69335;SHT31;56477;52.742;15.242;2023-04-25T11:04:30;9.44;85.50
69335;SHT31;56477;52.742;15.242;2023-04-25T11:09:28;10.08;85.17
69335;SHT31;56477;52.742;15.242;2023-04-25T11:11:55;10.17;83.40
69335;SHT31;56477;52.742;15.242;2023-04-25T11:14:22;10.00;83.87
69335;SHT31;56477;52.742;15.242;2023-04-25T11:16:53;10.22;83.97
69335;SHT31;56477;52.742;15.242;2023-04-25T11:19:20;10.12;84.01
69335;SHT31;56477;52.742;15.242;2023-04-25T11:21:46;10.21;83.51
69335;SHT31;56477;52.742;15.242;2023-04-25T11:24:12;10.05;81.77
69335;SHT31;56477;52.742;15.242;2023-04-25T11:26:41;10.00;82.44
69335;SHT31;56477;52.742;15.242;2023-04-25T11:29:07;10.08;81.23
69335;SHT31;56477;52.742;15.242;2023-04-25T11:31:34;10.00;81.69
69335;SHT31;56477;52.742;15.242;2023-04-25T11:34:00;9.81;82.01
69335;SHT31;56477;52.742;15.242;2023-04-25T11:36:26;9.59;84.04
69335;SHT31;56477;52.742;15.242;2023-04-25T11:38:53;9.19;84.55
69335;SHT31;56477;52.742;15.242;2023-04-25T11:41:20;8.81;85.66
69335;SHT31;56477;52.742;15.242;2023-04-25T11:43:48;8.85;86.33
69335;SHT31;56477;52.742;15.242;2023-04-25T11:46:17;8.77;85.18
69335;SHT31;56477;52.742;15.242;2023-04-25T11:48:45;8.82;85.18
69335;SHT31;56477;52.742;15.242;2023-04-25T11:51:12;9.02;85.06
69335;SHT31;56477;52.742;15.242;2023-04-25T11:53:41;9.04;83.39
69335;SHT31;56477;52.742;15.242;2023-04-25T11:56:12;9.33;84.97
69335;SHT31;56477;52.742;15.242;2023-04-25T12:03:52;9.35;82.94
69335;SHT31;56477;52.742;15.242;2023-04-25T12:06:19;9.69;82.68
69335;SHT31;56477;52.742;15.242;2023-04-25T12:09:04;10.24;81.63
69335;SHT31;56477;52.742;15.242;2023-04-25T12:11:31;10.46;80.16
69335;SHT31;56477;52.742;15.242;2023-04-25T12:14:04;10.49;78.84
69335;SHT31;56477;52.742;15.242;2023-04-25T12:16:40;11.78;75.19
69335;SHT31;56477;52.742;15.242;2023-04-25T12:19:07;13.24;71.05
69335;SHT31;56477;52.742;15.242;2023-04-25T12:21:33;13.94;67.02
69335;SHT31;56477;52.742;15.242;2023-04-25T12:24:17;13.54;71.35
69335;SHT31;56477;52.742;15.242;2023-04-25T12:27:01;12.12;69.20
69335;SHT31;56477;52.742;15.242;2023-04-25T12:29:29;11.16;67.82
69335;SHT31;56477;52.742;15.242;2023-04-25T12:31:55;10.87;68.42
69335;SHT31;56477;52.742;15.242;2023-04-25T12:34:22;10.83;70.60
69335;SHT31;56477;52.742;15.242;2023-04-25T12:36:49;10.95;69.93
69335;SHT31;56477;52.742;15.242;2023-04-25T12:41:43;11.32;68.83
69335;SHT31;56477;52.742;15.242;2023-04-25T12:44:10;11.37;68.26
69335;SHT31;56477;52.742;15.242;2023-04-25T12:46:36;11.31;66.83
69335;SHT31;56477;52.742;15.242;2023-04-25T12:49:03;11.35;66.90
69335;SHT31;56477;52.742;15.242;2023-04-25T12:51:30;11.06;65.93
69335;SHT31;56477;52.742;15.242;2023-04-25T12:53:56;11.04;64.50
69335;SHT31;56477;52.742;15.242;2023-04-25T12:56:22;10.80;64.89
69335;SHT31;56477;52.742;15.242;2023-04-25T12:58:48;10.77;65.59
69335;SHT31;56477;52.742;15.242;2023-04-25T13:01:14;10.56;63.04
69335;SHT31;56477;52.742;15.242;2023-04-25T13:03:40;10.70;63.60
69335;SHT31;56477;52.742;15.242;2023-04-25T13:06:07;10.55;59.90
69335;SHT31;56477;52.742;15.242;2023-04-25T13:08:33;10.53;61.78
69335;SHT31;56477;52.742;15.242;2023-04-25T13:11:00;10.37;64.89
69335;SHT31;56477;52.742;15.242;2023-04-25T13:13:26;10.44;65.46
69335;SHT31;56477;52.742;15.242;2023-04-25T13:15:53;10.29;64.91
69335;SHT31;56477;52.742;15.242;2023-04-25T13:18:18;10.28;65.25
69335;SHT31;56477;52.742;15.242;2023-04-25T13:20:45;10.32;64.80
69335;SHT31;56477;52.742;15.242;2023-04-25T13:23:11;10.49;64.58
69335;SHT31;56477;52.742;15.242;2023-04-25T13:25:38;10.77;64.39
69335;SHT31;56477;52.742;15.242;2023-04-25T13:28:04;10.70;63.95
69335;SHT31;56477;52.742;15.242;2023-04-25T13:30:30;10.59;61.82
69335;SHT31;56477;52.742;15.242;2023-04-25T13:32:56;10.50;60.78
69335;SHT31;56477;52.742;15.242;2023-04-25T13:35:23;10.52;60.42
69335;SHT31;56477;52.742;15.242;2023-04-25T13:37:48;10.58;60.03
69335;SHT31;56477;52.742;15.242;2023-04-25T13:40:15;10.45;58.76
69335;SHT31;56477;52.742;15.242;2023-04-25T13:42:41;11.06;58.48
69335;SHT31;56477;52.742;15.242;2023-04-25T13:45:10;11.00;57.70
69335;SHT31;56477;52.742;15.242;2023-04-25T13:47:35;10.77;57.71
69335;SHT31;56477;52.742;15.242;2023-04-25T13:50:02;10.66;56.88
69335;SHT31;56477;52.742;15.242;2023-04-25T13:52:29;10.59;57.91
69335;SHT31;56477;52.742;15.242;2023-04-25T13:54:55;10.65;57.91
69335;SHT31;56477;52.742;15.242;2023-04-25T13:57:21;10.72;58.61
69335;SHT31;56477;52.742;15.242;2023-04-25T13:59:47;10.75;58.67
69335;SHT31;56477;52.742;15.242;2023-04-25T14:02:13;10.89;59.25
69335;SHT31;56477;52.742;15.242;2023-04-25T14:04:40;10.77;58.78
69335;SHT31;56477;52.742;15.242;2023-04-25T14:07:06;10.76;60.23
69335;SHT31;56477;52.742;15.242;2023-04-25T14:09:32;10.38;60.08
69335;SHT31;56477;52.742;15.242;2023-04-25T14:11:58;10.17;59.42
69335;SHT31;56477;52.742;15.242;2023-04-25T14:14:24;10.04;60.16
69335;SHT31;56477;52.742;15.242;2023-04-25T14:16:51;10.05;60.74
69335;SHT31;56477;52.742;15.242;2023-04-25T14:19:20;9.98;61.29
69335;SHT31;56477;52.742;15.242;2023-04-25T14:21:46;10.12;61.01
69335;SHT31;56477;52.742;15.242;2023-04-25T14:24:13;10.00;59.91
69335;SHT31;56477;52.742;15.242;2023-04-25T14:26:39;10.07;59.14
69335;SHT31;56477;52.742;15.242;2023-04-25T14:29:06;10.07;59.13
69335;SHT31;56477;52.742;15.242;2023-04-25T14:31:34;10.09;57.97
69335;SHT31;56477;52.742;15.242;2023-04-25T14:34:02;10.00;57.73
69335;SHT31;56477;52.742;15.242;2023-04-25T14:36:28;9.88;58.44
69335;SHT31;56477;52.742;15.242;2023-04-25T14:38:54;9.93;58.87
69335;SHT31;56477;52.742;15.242;2023-04-25T14:41:20;9.91;58.49
69335;SHT31;56477;52.742;15.242;2023-04-25T14:43:47;9.71;56.10
69335;SHT31;56477;52.742;15.242;2023-04-25T14:46:12;9.63;56.43
69335;SHT31;56477;52.742;15.242;2023-04-25T14:48:39;9.57;56.06
69335;SHT31;56477;52.742;15.242;2023-04-25T14:51:05;9.56;56.30
69335;SHT31;56477;52.742;15.242;2023-04-25T14:53:31;9.54;55.78
69335;SHT31;56477;52.742;15.242;2023-04-25T14:55:57;9.51;55.43
69335;SHT31;56477;52.742;15.242;2023-04-25T14:58:23;9.56;56.00
69335;SHT31;56477;52.742;15.242;2023-04-25T15:00:49;9.59;55.32
69335;SHT31;56477;52.742;15.242;2023-04-25T15:03:16;9.67;55.27
69335;SHT31;56477;52.742;15.242;2023-04-25T15:05:43;9.61;54.30
69335;SHT31;56477;52.742;15.242;2023-04-25T15:08:09;9.57;53.64
69335;SHT31;56477;52.742;15.242;2023-04-25T15:10:39;9.67;54.42
69335;SHT31;56477;52.742;15.242;2023-04-25T15:13:05;9.74;55.03
69335;SHT31;56477;52.742;15.242;2023-04-25T15:15:31;9.73;53.58
69335;SHT31;56477;52.742;15.242;2023-04-25T15:17:57;9.94;53.21
69335;SHT31;56477;52.742;15.242;2023-04-25T15:20:23;10.49;52.66
69335;SHT31;56477;52.742;15.242;2023-04-25T15:22:50;10.77;51.82
69335;SHT31;56477;52.742;15.242;2023-04-25T15:25:16;10.35;52.00
69335;SHT31;56477;52.742;15.242;2023-04-25T15:27:46;10.27;52.44
69335;SHT31;56477;52.742;15.242;2023-04-25T15:30:17;10.09;52.53
69335;SHT31;56477;52.742;15.242;2023-04-25T15:32:47;10.05;53.92
69335;SHT31;56477;52.742;15.242;2023-04-25T15:35:13;9.94;52.85
69335;SHT31;56477;52.742;15.242;2023-04-25T15:37:40;9.80;52.17
69335;SHT31;56477;52.742;15.242;2023-04-25T15:40:24;9.80;53.04
69335;SHT31;56477;52.742;15.242;2023-04-25T15:42:52;9.83;52.96
69335;SHT31;56477;52.742;15.242;2023-04-25T15:45:20;9.81;53.38